Time;durP1;ratioP1;P1;durP2;ratioP2;P2;SDS_P1;SDS_P2;PMS_P1;PMS_P2;Temp;Humidity;BMP_temperature;BMP_pressure;BME280_temperature;BME280_humidity;BME280_pressure;Samples;Min_cycle;Max_cycle;Signal;HPM_P1;HPM_P2
2024/03/16 00:00:06;;;;;;;4.05;2.72;;;;;;;;;;5078285;28;20085;-58
2024/03/16 00:02:33;;;;;;;5.43;2.35;;;;;;;;;;5089837;28;20081;-60
2024/03/16 00:04:59;;;;;;;2.83;2.08;;;;;;;;;;5083252;28;20029;-58
2024/03/16 00:07:25;;;;;;;3.53;2.38;;;;;;;;;;5081034;28;20399;-59
2024/03/16 00:09:51;;;;;;;3.65;2.22;;;;;;;;;;5090109;28;20020;-58
2024/03/16 00:12:17;;;;;;;3.65;2.47;;;;;;;;;;5082671;28;20031;-58
2024/03/16 00:14:43;;;;;;;3.70;2.58;;;;;;;;;;5081205;28;20512;-59
2024/03/16 00:17:09;;;;;;;4.57;2.50;;;;;;;;;;5098080;28;20126;-59
2024/03/16 00:19:35;;;;;;;3.17;1.88;;;;;;;;;;5091996;28;20029;-58
2024/03/16 00:22:01;;;;;;;2.72;2.03;;;;;;;;;;5083036;28;20373;-57
2024/03/16 00:24:27;;;;;;;2.88;2.05;;;;;;;;;;5076168;28;20095;-59
2024/03/16 00:26:54;;;;;;;3.95;2.15;;;;;;;;;;5091918;28;20040;-59
2024/03/16 00:29:21;;;;;;;6.63;2.22;;;;;;;;;;5091672;28;20019;-57
2024/03/16 00:31:48;;;;;;;3.25;2.35;;;;;;;;;;5083334;28;20035;-59
2024/03/16 00:34:14;;;;;;;9.38;2.33;;;;;;;;;;5077716;28;20480;-58
2024/03/16 00:36:40;;;;;;;4.80;1.98;;;;;;;;;;5072569;28;20029;-58
2024/03/16 00:39:18;;;;;;;4.15;1.55;;;;;;;;;;5092772;28;20032;-57
2024/03/16 00:41:44;;;;;;;4.82;2.28;;;;;;;;;;5087082;28;20115;-58
2024/03/16 00:44:10;;;;;;;4.22;2.45;;;;;;;;;;5077502;28;20049;-58
2024/03/16 00:46:36;;;;;;;3.28;2.20;;;;;;;;;;5081131;28;20024;-58
2024/03/16 00:49:02;;;;;;;4.22;2.35;;;;;;;;;;5099062;28;20062;-58
2024/03/16 00:51:28;;;;;;;3.38;2.25;;;;;;;;;;5084928;28;20028;-58
2024/03/16 00:53:55;;;;;;;4.82;2.70;;;;;;;;;;5090087;28;20099;-59
2024/03/16 00:56:22;;;;;;;4.30;2.10;;;;;;;;;;5087679;28;20132;-58
2024/03/16 00:58:48;;;;;;;3.60;2.47;;;;;;;;;;5087918;28;20078;-57
2024/03/16 01:01:14;;;;;;;3.17;2.05;;;;;;;;;;5081602;28;20507;-58
2024/03/16 01:03:40;;;;;;;5.18;2.78;;;;;;;;;;5086548;28;20086;-58
2024/03/16 01:06:06;;;;;;;4.78;2.88;;;;;;;;;;5092422;28;20023;-58
2024/03/16 01:08:32;;;;;;;3.58;2.40;;;;;;;;;;5086353;28;20443;-58
2024/03/16 01:10:58;;;;;;;4.38;2.42;;;;;;;;;;5085097;28;20035;-57
2024/03/16 01:13:24;;;;;;;4.40;2.63;;;;;;;;;;5091591;28;20514;-59
2024/03/16 01:15:51;;;;;;;3.85;2.33;;;;;;;;;;5080979;28;20116;-58
2024/03/16 01:18:18;;;;;;;2.72;2.00;;;;;;;;;;5088965;28;20535;-58
2024/03/16 01:20:44;;;;;;;7.00;2.53;;;;;;;;;;5076362;28;20037;-58
2024/03/16 01:23:10;;;;;;;3.45;2.22;;;;;;;;;;5086234;28;20088;-59
2024/03/16 01:25:36;;;;;;;2.97;2.20;;;;;;;;;;5091219;28;20396;-59
2024/03/16 01:28:02;;;;;;;5.20;2.70;;;;;;;;;;5091675;28;20020;-58
2024/03/16 01:30:28;;;;;;;4.05;2.72;;;;;;;;;;5088852;28;20091;-59
2024/03/16 01:32:54;;;;;;;7.20;2.30;;;;;;;;;;5091660;28;20020;-58
2024/03/16 01:35:20;;;;;;;4.13;2.13;;;;;;;;;;5087075;28;20028;-58
2024/03/16 01:37:46;;;;;;;3.00;2.05;;;;;;;;;;5071930;28;20060;-58
2024/03/16 01:40:12;;;;;;;3.83;2.20;;;;;;;;;;5079367;28;20028;-58
2024/03/16 01:42:38;;;;;;;3.60;1.80;;;;;;;;;;5091703;28;20110;-58
2024/03/16 01:45:08;;;;;;;3.92;2.10;;;;;;;;;;5090501;28;20561;-58
2024/03/16 01:47:34;;;;;;;2.70;1.75;;;;;;;;;;5090093;28;20028;-59
2024/03/16 01:50:00;;;;;;;1.73;1.35;;;;;;;;;;5084106;28;20033;-58
2024/03/16 01:52:26;;;;;;;2.63;1.52;;;;;;;;;;5090412;28;20080;-58
2024/03/16 01:54:53;;;;;;;3.47;1.42;;;;;;;;;;5075633;28;20032;-58
2024/03/16 01:57:19;;;;;;;3.50;1.70;;;;;;;;;;5077637;28;20036;-59
2024/03/16 01:59:45;;;;;;;2.15;1.55;;;;;;;;;;5083240;28;20393;-59
2024/03/16 02:02:33;;;;;;;1.88;1.30;;;;;;;;;;5097337;28;20033;-60
2024/03/16 02:05:03;;;;;;;4.85;2.15;;;;;;;;;;5063492;28;20044;-60
2024/03/16 02:07:30;;;;;;;2.10;1.23;;;;;;;;;;5071476;28;20031;-59
2024/03/16 02:09:56;;;;;;;4.38;1.73;;;;;;;;;;5080100;28;20052;-58
2024/03/16 02:12:22;;;;;;;2.60;1.70;;;;;;;;;;5089053;28;20476;-58
2024/03/16 02:14:48;;;;;;;2.55;1.42;;;;;;;;;;5085413;28;20036;-58
2024/03/16 02:17:14;;;;;;;4.57;1.80;;;;;;;;;;5080905;28;20039;-58
2024/03/16 02:19:40;;;;;;;2.30;1.58;;;;;;;;;;5080895;28;20028;-58
2024/03/16 02:22:06;;;;;;;2.83;1.52;;;;;;;;;;5080135;28;20041;-61
2024/03/16 02:24:33;;;;;;;3.83;1.30;;;;;;;;;;5078848;28;20024;-58
2024/03/16 02:26:59;;;;;;;1.50;1.10;;;;;;;;;;5084338;28;20039;-56
2024/03/16 02:29:27;;;;;;;2.30;1.42;;;;;;;;;;5093448;28;20008;-57
2024/03/16 02:31:53;;;;;;;3.30;1.42;;;;;;;;;;5088637;28;20024;-59
2024/03/16 02:34:19;;;;;;;2.88;1.35;;;;;;;;;;5081077;28;20093;-58
2024/03/16 02:36:45;;;;;;;2.17;1.33;;;;;;;;;;5088741;28;20396;-61
2024/03/16 02:39:11;;;;;;;4.85;1.52;;;;;;;;;;5086809;28;20391;-57
2024/03/16 02:41:37;;;;;;;2.60;1.50;;;;;;;;;;5088260;28;20027;-58
2024/03/16 02:44:03;;;;;;;1.58;1.17;;;;;;;;;;5086847;28;20446;-56
2024/03/16 02:46:29;;;;;;;1.77;1.30;;;;;;;;;;5078030;28;20032;-57
2024/03/16 02:48:55;;;;;;;3.30;1.50;;;;;;;;;;5094471;28;20024;-58
2024/03/16 02:51:22;;;;;;;2.63;1.25;;;;;;;;;;5082258;28;20028;-61
2024/03/16 02:53:48;;;;;;;2.30;1.40;;;;;;;;;;5077700;28;20111;-57
2024/03/16 02:56:14;;;;;;;1.85;1.42;;;;;;;;;;5088991;28;20028;-58
2024/03/16 02:58:40;;;;;;;2.00;1.20;;;;;;;;;;5079060;28;20051;-57
2024/03/16 03:01:06;;;;;;;1.80;1.10;;;;;;;;;;5085300;28;20024;-58
2024/03/16 03:03:32;;;;;;;2.78;1.17;;;;;;;;;;5087105;28;20029;-58
2024/03/16 03:05:58;;;;;;;2.17;1.00;;;;;;;;;;5074160;28;20392;-57
2024/03/16 03:08:23;;;;;;;3.97;1.52;;;;;;;;;;5075891;28;21604;-60
2024/03/16 03:10:50;;;;;;;2.78;1.27;;;;;;;;;;5091462;28;20793;-57
2024/03/16 03:13:16;;;;;;;1.88;1.10;;;;;;;;;;5090561;28;20110;-58
2024/03/16 03:15:42;;;;;;;2.28;1.50;;;;;;;;;;5085366;28;20047;-58
2024/03/16 03:18:08;;;;;;;1.60;1.13;;;;;;;;;;5084587;28;20032;-53
2024/03/16 03:20:34;;;;;;;4.97;1.15;;;;;;;;;;5092062;28;20072;-58
2024/03/16 03:23:00;;;;;;;2.55;1.60;;;;;;;;;;5075656;28;20036;-54
2024/03/16 03:25:27;;;;;;;1.55;1.00;;;;;;;;;;5089805;28;20035;-55
2024/03/16 03:27:53;;;;;;;2.03;1.38;;;;;;;;;;5085650;28;20020;-57
2024/03/16 03:30:19;;;;;;;1.65;1.17;;;;;;;;;;5084104;28;20094;-52
2024/03/16 03:32:45;;;;;;;2.42;1.27;;;;;;;;;;5075526;28;20035;-57
2024/03/16 03:35:11;;;;;;;2.78;1.23;;;;;;;;;;5090956;28;20036;-57
2024/03/16 03:37:36;;;;;;;2.90;1.23;;;;;;;;;;5092456;28;20058;-55
2024/03/16 03:40:03;;;;;;;1.77;1.20;;;;;;;;;;5094316;28;20031;-57
2024/03/16 03:42:29;;;;;;;5.55;1.70;;;;;;;;;;5077394;28;20057;-54
2024/03/16 03:47:50;;;;;;;3.63;1.23;;;;;;;;;;5074405;28;20044;-54
2024/03/16 03:50:26;;;;;;;1.30;0.95;;;;;;;;;;5086705;28;20060;-56
2024/03/16 03:52:53;;;;;;;2.80;1.10;;;;;;;;;;5075603;28;20060;-56
2024/03/16 03:55:19;;;;;;;2.50;1.25;;;;;;;;;;5089768;28;20039;-57
2024/03/16 03:57:45;;;;;;;1.55;1.00;;;;;;;;;;5093663;28;20396;-58
2024/03/16 04:00:11;;;;;;;1.48;1.05;;;;;;;;;;5092161;28;20020;-56
2024/03/16 04:02:37;;;;;;;2.78;1.40;;;;;;;;;;5075834;28;20476;-56
2024/03/16 04:05:03;;;;;;;4.85;1.17;;;;;;;;;;5074044;28;20028;-55
2024/03/16 04:07:29;;;;;;;3.10;1.20;;;;;;;;;;5084828;28;20028;-55
2024/03/16 04:09:55;;;;;;;3.88;1.10;;;;;;;;;;5084059;28;20388;-56
2024/03/16 04:12:21;;;;;;;3.42;1.05;;;;;;;;;;5078115;28;20398;-57
2024/03/16 04:14:47;;;;;;;2.25;0.88;;;;;;;;;;5094250;28;20494;-55
2024/03/16 04:17:13;;;;;;;3.53;1.65;;;;;;;;;;5089558;28;20040;-55
2024/03/16 04:19:39;;;;;;;1.88;1.17;;;;;;;;;;5091192;28;20031;-56
2024/03/16 04:22:05;;;;;;;4.00;0.90;;;;;;;;;;5092684;28;20507;-56
2024/03/16 04:24:31;;;;;;;1.92;1.30;;;;;;;;;;5091422;28;20440;-55
2024/03/16 04:26:57;;;;;;;2.13;1.20;;;;;;;;;;5089271;28;20028;-60
2024/03/16 04:29:24;;;;;;;2.25;1.00;;;;;;;;;;5092910;28;20024;-57
2024/03/16 04:31:50;;;;;;;2.50;1.15;;;;;;;;;;5088210;28;20035;-55
2024/03/16 04:34:16;;;;;;;3.38;1.23;;;;;;;;;;5072418;28;20020;-55
2024/03/16 04:36:42;;;;;;;3.38;1.17;;;;;;;;;;5086875;28;20090;-55
2024/03/16 04:39:08;;;;;;;5.50;1.58;;;;;;;;;;5089143;28;20028;-56
2024/03/16 04:41:33;;;;;;;2.75;1.23;;;;;;;;;;5090652;28;20028;-55
2024/03/16 04:43:59;;;;;;;5.15;1.48;;;;;;;;;;5081485;28;20039;-55
2024/03/16 04:46:28;;;;;;;5.93;1.30;;;;;;;;;;5088787;28;20028;-55
2024/03/16 04:48:54;;;;;;;3.92;1.02;;;;;;;;;;5090325;28;20020;-55
2024/03/16 04:51:20;;;;;;;4.05;1.13;;;;;;;;;;5092357;28;20089;-55
2024/03/16 04:53:46;;;;;;;2.63;1.02;;;;;;;;;;5092148;28;20020;-55
2024/03/16 04:56:12;;;;;;;1.65;1.00;;;;;;;;;;5092382;28;20020;-55
2024/03/16 04:58:38;;;;;;;4.30;1.15;;;;;;;;;;5086810;28;20084;-55
2024/03/16 05:01:05;;;;;;;2.42;1.30;;;;;;;;;;5093422;28;20426;-56
2024/03/16 05:03:34;;;;;;;3.05;1.17;;;;;;;;;;5087659;28;20032;-55
2024/03/16 05:06:00;;;;;;;2.47;1.10;;;;;;;;;;5080863;28;20037;-55
2024/03/16 05:08:26;;;;;;;3.28;1.33;;;;;;;;;;5091948;28;20472;-55
2024/03/16 05:10:52;;;;;;;1.73;0.95;;;;;;;;;;5092122;28;20444;-55
2024/03/16 05:13:18;;;;;;;2.30;1.17;;;;;;;;;;5091556;28;20024;-55
2024/03/16 05:15:43;;;;;;;5.03;1.20;;;;;;;;;;5091111;28;20107;-55
2024/03/16 05:18:09;;;;;;;5.25;1.40;;;;;;;;;;5091720;28;20484;-55
2024/03/16 05:20:35;;;;;;;2.15;1.25;;;;;;;;;;5084048;28;20056;-55
2024/03/16 05:23:02;;;;;;;2.50;1.38;;;;;;;;;;5086299;28;20036;-55
2024/03/16 05:25:28;;;;;;;2.70;1.92;;;;;;;;;;5098229;28;20052;-55
2024/03/16 05:27:54;;;;;;;2.83;1.20;;;;;;;;;;5095677;28;20050;-55
2024/03/16 05:30:20;;;;;;;4.22;1.70;;;;;;;;;;5086650;28;20025;-54
2024/03/16 05:32:46;;;;;;;1.60;1.10;;;;;;;;;;5083845;28;20048;-54
2024/03/16 05:35:12;;;;;;;2.40;1.38;;;;;;;;;;5090920;28;20032;-55
2024/03/16 05:37:38;;;;;;;2.50;1.25;;;;;;;;;;5087535;28;20028;-55
2024/03/16 05:40:05;;;;;;;1.73;1.17;;;;;;;;;;5091076;28;20039;-52
2024/03/16 05:42:31;;;;;;;1.77;1.10;;;;;;;;;;5091529;28;20042;-54
2024/03/16 05:44:59;;;;;;;2.70;1.20;;;;;;;;;;5078312;28;20715;-55
2024/03/16 05:47:25;;;;;;;3.30;1.50;;;;;;;;;;5092284;28;20387;-56
2024/03/16 05:49:51;;;;;;;3.95;1.70;;;;;;;;;;5087857;28;20028;-54
2024/03/16 05:52:17;;;;;;;4.60;1.98;;;;;;;;;;5090271;28;20489;-56
2024/03/16 05:54:43;;;;;;;3.83;1.20;;;;;;;;;;5090778;28;20048;-56
2024/03/16 05:57:08;;;;;;;3.00;1.45;;;;;;;;;;5092523;28;20024;-55
2024/03/16 05:59:34;;;;;;;2.78;1.20;;;;;;;;;;5092492;28;20150;-53
2024/03/16 06:02:00;;;;;;;5.60;1.40;;;;;;;;;;5094048;28;20068;-56
2024/03/16 06:04:26;;;;;;;1.95;1.15;;;;;;;;;;5094052;28;20668;-55
2024/03/16 06:06:52;;;;;;;1.30;1.00;;;;;;;;;;5092808;28;20043;-55
2024/03/16 06:09:18;;;;;;;5.45;1.88;;;;;;;;;;5094527;28;20024;-55
2024/03/16 06:11:44;;;;;;;6.30;1.60;;;;;;;;;;5094172;28;20047;-55
2024/03/16 06:14:10;;;;;;;2.80;1.63;;;;;;;;;;5094228;28;20035;-52
2024/03/16 06:16:40;;;;;;;6.07;1.60;;;;;;;;;;5092923;28;20035;-54
2024/03/16 06:19:06;;;;;;;3.85;1.30;;;;;;;;;;5094348;28;20430;-55
2024/03/16 06:21:32;;;;;;;3.85;1.27;;;;;;;;;;5094089;28;20407;-55
2024/03/16 06:23:58;;;;;;;8.20;1.20;;;;;;;;;;5099710;28;20028;-54
2024/03/16 06:26:28;;;;;;;3.72;1.33;;;;;;;;;;5092653;28;20024;-54
2024/03/16 06:29:05;;;;;;;2.30;1.08;;;;;;;;;;5091868;28;20394;-53
2024/03/16 06:31:31;;;;;;;6.05;1.60;;;;;;;;;;5093213;28;20044;-55
2024/03/16 06:34:04;;;;;;;6.05;1.73;;;;;;;;;;5095635;28;20483;-56
2024/03/16 06:36:30;;;;;;;;;;;;;;;;;;5099556;28;20070;-54
2024/03/16 06:38:56;;;;;;;4.68;1.58;;;;;;;;;;5093461;28;19951;-53
2024/03/16 06:41:22;;;;;;;9.55;1.90;;;;;;;;;;5092103;28;20490;-55
2024/03/16 06:43:48;;;;;;;9.82;1.58;;;;;;;;;;5088269;28;20062;-55
2024/03/16 06:46:14;;;;;;;6.70;1.45;;;;;;;;;;5101281;28;20487;-55
2024/03/16 06:48:41;;;;;;;3.20;1.38;;;;;;;;;;5087577;28;20025;-58
2024/03/16 06:51:07;;;;;;;7.88;1.40;;;;;;;;;;5093602;28;20025;-59
2024/03/16 06:53:33;;;;;;;4.00;1.25;;;;;;;;;;5093415;28;20047;-57
2024/03/16 06:55:59;;;;;;;4.07;1.00;;;;;;;;;;5083070;28;20066;-59
2024/03/16 06:58:25;;;;;;;6.95;1.65;;;;;;;;;;5090412;28;20295;-58
2024/03/16 07:00:51;;;;;;;7.63;1.58;;;;;;;;;;5082551;28;20463;-58
2024/03/16 07:03:18;;;;;;;7.20;1.35;;;;;;;;;;5091638;28;20020;-58
2024/03/16 07:05:44;;;;;;;6.57;1.70;;;;;;;;;;5088582;28;20441;-57
2024/03/16 07:08:12;;;;;;;8.05;1.33;;;;;;;;;;5079435;28;20036;-59
2024/03/16 07:10:38;;;;;;;4.22;0.95;;;;;;;;;;5088576;28;20028;-58
2024/03/16 07:13:05;;;;;;;7.97;1.20;;;;;;;;;;5083499;28;20032;-59
2024/03/16 07:15:33;;;;;;;5.10;1.30;;;;;;;;;;5091661;28;20122;-58
2024/03/16 07:17:58;;;;;;;2.92;1.30;;;;;;;;;;5091613;28;20066;-58
2024/03/16 07:20:24;;;;;;;7.55;1.40;;;;;;;;;;5086026;28;20444;-58
2024/03/16 07:22:52;;;;;;;2.35;1.10;;;;;;;;;;5082534;28;20036;-60
2024/03/16 07:25:18;;;;;;;2.45;1.00;;;;;;;;;;5083347;28;20116;-58
2024/03/16 07:27:44;;;;;;;3.88;1.10;;;;;;;;;;5085386;28;20032;-58
2024/03/16 07:30:10;;;;;;;3.53;1.00;;;;;;;;;;5078504;28;20035;-58
2024/03/16 07:32:36;;;;;;;3.47;1.45;;;;;;;;;;5082707;28;20024;-58
2024/03/16 07:35:06;;;;;;;6.18;1.00;;;;;;;;;;5083910;28;20036;-58
2024/03/16 07:37:32;;;;;;;2.33;0.75;;;;;;;;;;5081319;28;20028;-56
2024/03/16 07:39:58;;;;;;;4.18;1.10;;;;;;;;;;5088919;28;20020;-58
2024/03/16 07:42:24;;;;;;;5.25;0.90;;;;;;;;;;5087083;28;20040;-60
2024/03/16 07:44:50;;;;;;;2.72;1.00;;;;;;;;;;5086859;28;20028;-58
2024/03/16 07:47:16;;;;;;;2.50;0.90;;;;;;;;;;5091536;28;20020;-59
2024/03/16 07:49:42;;;;;;;2.53;1.00;;;;;;;;;;5088756;28;20024;-59
2024/03/16 07:52:08;;;;;;;4.25;0.82;;;;;;;;;;5090431;28;20024;-58
2024/03/16 07:54:35;;;;;;;5.45;1.02;;;;;;;;;;5091601;28;20528;-58
2024/03/16 07:57:02;;;;;;;4.95;1.13;;;;;;;;;;5086908;28;20149;-60
2024/03/16 07:59:28;;;;;;;5.85;0.93;;;;;;;;;;5088418;28;20492;-57
2024/03/16 08:01:54;;;;;;;3.22;1.20;;;;;;;;;;5086324;28;20024;-57
2024/03/16 08:04:20;;;;;;;7.13;1.02;;;;;;;;;;5091805;28;20447;-57
2024/03/16 08:06:46;;;;;;;3.50;0.82;;;;;;;;;;5093958;28;20026;-56
2024/03/16 08:09:12;;;;;;;2.83;1.02;;;;;;;;;;5095867;28;20030;-57
2024/03/16 08:11:38;;;;;;;3.97;0.73;;;;;;;;;;5098265;28;20031;-57
2024/03/16 08:14:05;;;;;;;2.75;0.77;;;;;;;;;;5091191;28;20455;-57
2024/03/16 08:16:32;;;;;;;3.90;1.02;;;;;;;;;;5090078;28;20058;-57
2024/03/16 08:18:58;;;;;;;4.63;0.85;;;;;;;;;;5098981;28;20499;-57
2024/03/16 08:21:24;;;;;;;2.72;0.90;;;;;;;;;;5085722;28;20040;-56
2024/03/16 08:23:50;;;;;;;2.83;1.17;;;;;;;;;;5091432;28;20039;-57
2024/03/16 08:26:16;;;;;;;5.68;1.10;;;;;;;;;;5089891;28;20048;-57
2024/03/16 08:28:42;;;;;;;4.00;1.58;;;;;;;;;;5082668;28;20394;-58
2024/03/16 08:31:08;;;;;;;2.70;0.80;;;;;;;;;;5089599;28;20032;-56
2024/03/16 08:33:34;;;;;;;4.60;0.98;;;;;;;;;;5091763;28;20016;-57
2024/03/16 08:36:00;;;;;;;4.28;1.60;;;;;;;;;;5091699;28;20505;-57
2024/03/16 08:38:26;;;;;;;2.75;0.63;;;;;;;;;;5091142;28;20020;-56
2024/03/16 08:40:52;;;;;;;5.57;0.90;;;;;;;;;;5091613;28;20495;-57
2024/03/16 08:43:18;;;;;;;4.20;1.10;;;;;;;;;;5091420;28;20507;-57
2024/03/16 08:45:44;;;;;;;6.13;1.58;;;;;;;;;;5090016;28;20039;-56
2024/03/16 08:48:10;;;;;;;3.80;0.95;;;;;;;;;;5083006;28;20373;-57
2024/03/16 08:50:36;;;;;;;3.72;1.08;;;;;;;;;;5098299;28;20027;-58
2024/03/16 08:53:04;;;;;;;5.20;0.90;;;;;;;;;;5095809;28;20074;-57
2024/03/16 08:55:30;;;;;;;5.32;1.10;;;;;;;;;;5091788;28;20410;-57
2024/03/16 08:57:56;;;;;;;4.63;0.90;;;;;;;;;;5091533;28;20043;-57
2024/03/16 09:00:22;;;;;;;4.75;1.05;;;;;;;;;;5085353;28;20452;-57
2024/03/16 09:02:50;;;;;;;1.75;0.70;;;;;;;;;;5077046;28;20028;-56
2024/03/16 09:05:15;;;;;;;3.15;0.90;;;;;;;;;;5091296;28;20020;-56
2024/03/16 09:07:42;;;;;;;1.88;0.90;;;;;;;;;;5091384;28;20434;-56
2024/03/16 09:10:11;;;;;;;1.25;0.70;;;;;;;;;;5091672;28;20027;-55
2024/03/16 09:12:37;;;;;;;1.50;0.82;;;;;;;;;;5095377;28;20411;-56
2024/03/16 09:15:08;;;;;;;3.47;0.80;;;;;;;;;;5089895;28;20028;-56
2024/03/16 09:17:34;;;;;;;4.15;0.88;;;;;;;;;;5087808;28;20062;-56
2024/03/16 09:20:07;;;;;;;4.80;0.98;;;;;;;;;;5089437;28;20102;-56
2024/03/16 09:22:34;;;;;;;2.75;0.70;;;;;;;;;;5092222;28;20024;-56
2024/03/16 09:25:00;;;;;;;3.25;0.90;;;;;;;;;;5090085;28;20123;-55
2024/03/16 09:27:26;;;;;;;2.08;0.60;;;;;;;;;;5091011;28;20494;-57
2024/03/16 09:29:52;;;;;;;2.88;0.80;;;;;;;;;;5091334;28;20080;-56
2024/03/16 09:32:18;;;;;;;4.20;1.17;;;;;;;;;;5082026;28;20365;-55
2024/03/16 09:34:47;;;;;;;4.57;1.45;;;;;;;;;;5095184;28;20111;-55
2024/03/16 09:37:13;;;;;;;3.90;1.25;;;;;;;;;;5095076;28;20024;-56
2024/03/16 09:39:39;;;;;;;3.70;1.08;;;;;;;;;;5095316;28;20036;-56
2024/03/16 09:42:05;;;;;;;2.20;0.90;;;;;;;;;;5095096;28;20028;-54
2024/03/16 09:44:32;;;;;;;5.68;1.48;;;;;;;;;;5095238;28;20028;-56
2024/03/16 09:46:59;;;;;;;1.90;1.08;;;;;;;;;;5093992;28;20107;-58
2024/03/16 09:49:25;;;;;;;8.55;1.38;;;;;;;;;;5094996;28;20036;-56
2024/03/16 09:51:52;;;;;;;4.18;1.48;;;;;;;;;;5101302;28;20107;-56
2024/03/16 09:54:20;;;;;;;6.45;1.40;;;;;;;;;;5094712;28;20069;-56
2024/03/16 09:56:49;;;;;;;5.20;1.63;;;;;;;;;;5094938;28;20451;-56
2024/03/16 09:59:17;;;;;;;4.57;1.13;;;;;;;;;;5094974;28;20537;-54
2024/03/16 10:01:43;;;;;;;6.40;1.90;;;;;;;;;;5093164;28;20392;-55
2024/03/16 10:04:09;;;;;;;5.78;2.10;;;;;;;;;;5094267;28;20077;-55
2024/03/16 10:06:37;;;;;;;3.92;1.60;;;;;;;;;;5094965;28;20491;-56
2024/03/16 10:09:11;;;;;;;6.78;1.85;;;;;;;;;;5094648;28;20081;-55
2024/03/16 10:11:37;;;;;;;5.40;1.60;;;;;;;;;;5083185;28;20039;-57
2024/03/16 10:14:07;;;;;;;4.00;1.70;;;;;;;;;;5094178;28;20095;-57
2024/03/16 10:16:33;;;;;;;7.43;2.60;;;;;;;;;;5087493;28;20036;-56
2024/03/16 10:18:59;;;;;;;6.57;2.55;;;;;;;;;;5089562;28;20024;-58
2024/03/16 10:21:28;;;;;;;3.53;1.83;;;;;;;;;;5099731;28;20119;-58
2024/03/16 10:23:55;;;;;;;4.85;3.05;;;;;;;;;;5098969;28;20070;-57
2024/03/16 10:26:21;;;;;;;7.20;2.53;;;;;;;;;;5094427;28;20024;-57
2024/03/16 10:28:50;;;;;;;7.97;3.08;;;;;;;;;;5094080;28;20505;-57
2024/03/16 10:31:17;;;;;;;7.05;2.58;;;;;;;;;;5092133;28;20020;-58
2024/03/16 10:33:43;;;;;;;6.57;2.75;;;;;;;;;;5103142;28;20383;-57
2024/03/16 10:36:17;;;;;;;4.90;2.70;;;;;;;;;;5089590;28;20016;-57
2024/03/16 10:38:43;;;;;;;7.65;2.85;;;;;;;;;;5092244;28;20028;-57
2024/03/16 10:41:16;;;;;;;7.53;2.97;;;;;;;;;;5086015;28;20103;-57
2024/03/16 10:43:43;;;;;;;5.45;3.20;;;;;;;;;;5094635;28;20020;-58
2024/03/16 10:46:15;;;;;;;14.13;3.17;;;;;;;;;;5082061;28;20025;-57
2024/03/16 10:48:42;;;;;;;5.50;2.57;;;;;;;;;;5085984;28;20068;-58
2024/03/16 10:51:09;;;;;;;8.30;2.95;;;;;;;;;;5087174;28;20078;-58
2024/03/16 10:53:36;;;;;;;6.68;2.90;;;;;;;;;;5093344;28;20452;-58
2024/03/16 10:56:03;;;;;;;8.13;2.30;;;;;;;;;;5093688;28;20020;-58
2024/03/16 10:58:29;;;;;;;8.88;3.30;;;;;;;;;;5093600;28;20395;-58
2024/03/16 11:00:56;;;;;;;4.70;2.80;;;;;;;;;;5083288;28;20505;-58
2024/03/16 11:03:27;;;;;;;7.65;2.78;;;;;;;;;;5091919;28;20069;-58
2024/03/16 11:06:00;;;;;;;4.32;2.42;;;;;;;;;;5087320;28;20040;-58
2024/03/16 11:08:41;;;;;;;5.20;2.90;;;;;;;;;;5088673;28;20365;-58
2024/03/16 11:11:08;;;;;;;4.43;2.90;;;;;;;;;;5093098;28;20864;-58
2024/03/16 11:13:35;;;;;;;7.40;3.20;;;;;;;;;;5091621;28;20363;-58
2024/03/16 11:16:22;;;;;;;5.80;3.67;;;;;;;;;;5094461;28;20447;-58
2024/03/16 11:18:52;;;;;;;5.55;3.72;;;;;;;;;;5092855;28;20089;-57
2024/03/16 11:21:20;;;;;;;7.25;3.75;;;;;;;;;;5090913;28;20086;-58
2024/03/16 11:23:48;;;;;;;7.70;3.60;;;;;;;;;;5092991;28;20035;-57
2024/03/16 11:26:31;;;;;;;8.48;3.70;;;;;;;;;;5087114;28;20047;-57
2024/03/16 11:29:27;;;;;;;5.85;3.58;;;;;;;;;;5105059;28;20027;-55
2024/03/16 11:31:57;;;;;;;10.35;4.25;;;;;;;;;;5090036;28;20039;-55
2024/03/16 11:34:25;;;;;;;;;;;;;;;;;;5092910;28;20035;-54
2024/03/16 11:36:52;;;;;;;7.15;3.78;;;;;;;;;;5092740;28;19998;-56
2024/03/16 11:39:29;;;;;;;3.58;2.55;;;;;;;;;;5092702;28;20030;-59
2024/03/16 11:41:55;;;;;;;;;;;;;;;;;;5091924;28;20031;-58
2024/03/16 11:44:22;;;;;;;7.78;2.75;;;;;;;;;;5090007;28;19951;-59
2024/03/16 11:46:49;;;;;;;8.95;2.92;;;;;;;;;;5088768;28;20028;-58
2024/03/16 11:49:16;;;;;;;5.00;2.35;;;;;;;;;;5087634;28;20433;-59
2024/03/16 11:51:42;;;;;;;4.78;2.75;;;;;;;;;;5089575;28;20537;-59
2024/03/16 11:54:08;;;;;;;8.32;3.20;;;;;;;;;;5089596;28;20028;-59
2024/03/16 11:56:35;;;;;;;5.32;3.10;;;;;;;;;;5091857;28;20032;-59
2024/03/16 11:59:04;;;;;;;6.35;2.80;;;;;;;;;;5098819;28;20032;-59
2024/03/16 12:01:31;;;;;;;4.38;2.72;;;;;;;;;;5081662;28;20059;-59
2024/03/16 12:03:58;;;;;;;8.57;2.88;;;;;;;;;;5084552;28;20108;-60
2024/03/16 12:06:24;;;;;;;6.28;2.83;;;;;;;;;;5089329;28;20024;-59
2024/03/16 12:08:50;;;;;;;5.22;3.47;;;;;;;;;;5086108;28;20449;-59
2024/03/16 12:11:18;;;;;;;5.93;3.30;;;;;;;;;;5090336;28;20368;-59
2024/03/16 12:13:44;;;;;;;5.95;3.40;;;;;;;;;;5090311;28;20026;-59
2024/03/16 12:16:10;;;;;;;4.55;2.65;;;;;;;;;;5089376;28;20111;-60
2024/03/16 12:18:36;;;;;;;6.82;3.40;;;;;;;;;;5079552;28;20103;-58
2024/03/16 12:21:06;;;;;;;5.55;3.15;;;;;;;;;;5094525;28;20062;-59
2024/03/16 12:23:36;;;;;;;5.70;3.25;;;;;;;;;;5091528;28;20479;-59
2024/03/16 12:26:02;;;;;;;11.32;3.88;;;;;;;;;;5089119;28;20383;-59
2024/03/16 12:28:29;;;;;;;7.88;4.30;;;;;;;;;;5075444;28;20562;-59
2024/03/16 12:30:58;;;;;;;6.88;3.25;;;;;;;;;;5081445;28;20502;-58
2024/03/16 12:33:27;;;;;;;6.60;3.00;;;;;;;;;;5090799;28;20053;-59
2024/03/16 12:35:53;;;;;;;5.07;3.33;;;;;;;;;;5089760;28;20162;-59
2024/03/16 12:38:19;;;;;;;7.32;3.42;;;;;;;;;;5080576;28;20060;-55
2024/03/16 12:40:45;;;;;;;9.27;3.53;;;;;;;;;;5081788;28;20024;-55
2024/03/16 12:43:11;;;;;;;4.85;2.92;;;;;;;;;;5081083;28;20090;-56
2024/03/16 12:45:37;;;;;;;6.22;2.63;;;;;;;;;;5089744;28;20064;-55
2024/03/16 12:48:03;;;;;;;5.18;2.40;;;;;;;;;;5090088;28;20027;-56
2024/03/16 12:50:29;;;;;;;3.58;1.83;;;;;;;;;;5091371;28;20039;-54
2024/03/16 12:52:54;;;;;;;7.75;2.33;;;;;;;;;;5084188;28;20024;-56
2024/03/16 12:55:20;;;;;;;4.72;2.00;;;;;;;;;;5087223;28;20032;-56
2024/03/16 12:57:49;;;;;;;5.97;2.10;;;;;;;;;;5088001;28;20027;-55
2024/03/16 13:00:22;;;;;;;3.95;2.17;;;;;;;;;;5091523;28;20123;-56
2024/03/16 13:02:49;;;;;;;5.38;2.33;;;;;;;;;;5076596;28;20039;-56
2024/03/16 13:05:15;;;;;;;3.90;1.90;;;;;;;;;;5092080;28;20063;-55
2024/03/16 13:07:41;;;;;;;3.65;1.73;;;;;;;;;;5091887;28;20024;-56
2024/03/16 13:10:08;;;;;;;5.13;2.65;;;;;;;;;;5086873;28;20487;-56
2024/03/16 13:12:34;;;;;;;7.60;2.28;;;;;;;;;;5087525;28;20027;-56
2024/03/16 13:15:03;;;;;;;3.80;1.77;;;;;;;;;;5085282;28;20500;-55
2024/03/16 13:17:29;;;;;;;7.80;1.77;;;;;;;;;;5083940;28;20032;-57
2024/03/16 13:19:55;;;;;;;3.75;1.88;;;;;;;;;;5085758;28;20032;-55
2024/03/16 13:22:22;;;;;;;4.28;1.58;;;;;;;;;;5090729;28;20397;-57
2024/03/16 13:24:48;;;;;;;5.45;1.55;;;;;;;;;;5091029;28;20128;-56
2024/03/16 13:27:14;;;;;;;4.93;1.58;;;;;;;;;;5090176;28;20107;-55
2024/03/16 13:29:40;;;;;;;2.45;1.30;;;;;;;;;;5080571;28;20039;-55
2024/03/16 13:32:06;;;;;;;3.25;1.60;;;;;;;;;;5078724;28;20153;-55
2024/03/16 13:34:33;;;;;;;4.63;1.60;;;;;;;;;;5083838;28;20032;-55
2024/03/16 13:37:02;;;;;;;4.45;1.75;;;;;;;;;;5085284;28;20099;-55
2024/03/16 13:39:30;;;;;;;5.38;1.63;;;;;;;;;;5088198;28;20046;-54
2024/03/16 13:41:57;;;;;;;4.88;1.95;;;;;;;;;;5091182;28;20046;-56
2024/03/16 13:44:23;;;;;;;3.03;1.80;;;;;;;;;;5090305;28;20032;-57
2024/03/16 13:46:51;;;;;;;5.80;1.88;;;;;;;;;;5093615;28;20715;-54
2024/03/16 13:49:17;;;;;;;12.68;2.75;;;;;;;;;;5097258;28;20031;-58
2024/03/16 13:51:43;;;;;;;5.95;2.08;;;;;;;;;;5084798;28;20024;-59
2024/03/16 13:54:09;;;;;;;6.13;1.88;;;;;;;;;;5088873;28;20020;-59
2024/03/16 13:56:35;;;;;;;1.90;1.40;;;;;;;;;;5088296;28;20120;-60
2024/03/16 13:59:02;;;;;;;5.75;1.75;;;;;;;;;;5086692;28;20471;-59
2024/03/16 14:01:29;;;;;;;4.93;2.17;;;;;;;;;;5085350;28;20538;-59
2024/03/16 14:03:56;;;;;;;7.15;1.85;;;;;;;;;;5087606;28;20119;-60
2024/03/16 14:06:23;;;;;;;7.03;1.85;;;;;;;;;;5085822;28;20032;-59
2024/03/16 14:08:49;;;;;;;6.07;1.77;;;;;;;;;;5080873;28;20073;-59
2024/03/16 14:11:15;;;;;;;11.02;2.33;;;;;;;;;;5090071;28;20039;-59
2024/03/16 14:13:41;;;;;;;10.02;2.03;;;;;;;;;;5090456;28;20028;-58
2024/03/16 14:16:07;;;;;;;4.97;1.83;;;;;;;;;;5090746;28;20391;-58
2024/03/16 14:18:34;;;;;;;4.60;2.30;;;;;;;;;;5093419;28;20168;-59
2024/03/16 14:21:00;;;;;;;8.68;1.65;;;;;;;;;;5107483;28;20051;-59
2024/03/16 14:23:27;;;;;;;4.85;1.50;;;;;;;;;;5093600;28;20073;-59
2024/03/16 14:25:55;;;;;;;4.35;1.60;;;;;;;;;;5092587;28;20021;-59
2024/03/16 14:28:22;;;;;;;5.82;1.52;;;;;;;;;;5090541;28;20039;-59
2024/03/16 14:30:48;;;;;;;3.85;1.52;;;;;;;;;;5094142;28;20035;-60
2024/03/16 14:33:19;;;;;;;2.63;1.10;;;;;;;;;;5090579;28;20024;-59
2024/03/16 14:35:46;;;;;;;7.07;1.30;;;;;;;;;;5093619;28;20039;-58
2024/03/16 14:38:14;;;;;;;2.88;1.30;;;;;;;;;;5091903;28;20111;-59
2024/03/16 14:40:40;;;;;;;4.63;1.70;;;;;;;;;;5093554;28;20468;-58
2024/03/16 14:43:06;;;;;;;4.93;1.58;;;;;;;;;;5093896;28;20024;-59